sensor_id;sensor_type;location;lat;lon;timestamp;temperature;humidity
67358;HTU21D;54240;51.096;5.878;2023-05-27T00:00:08;11.91;-6.00
67358;HTU21D;54240;51.096;5.878;2023-05-27T00:02:34;11.90;-6.00
67358;HTU21D;54240;51.096;5.878;2023-05-27T00:05:00;11.89;-6.00
67358;HTU21D;54240;51.096;5.878;2023-05-27T00:07:27;11.79;-6.00
67358;HTU21D;54240;51.096;5.878;2023-05-27T00:09:54;11.90;-6.00
67358;HTU21D;54240;51.096;5.878;2023-05-27T00:12:20;11.92;-6.00
67358;HTU21D;54240;51.096;5.878;2023-05-27T00:14:46;11.81;-6.00
67358;HTU21D;54240;51.096;5.878;2023-05-27T00:17:12;11.73;-6.00
67358;HTU21D;54240;51.096;5.878;2023-05-27T00:19:43;11.77;-6.00
67358;HTU21D;54240;51.096;5.878;2023-05-27T00:22:11;11.74;-6.00
67358;HTU21D;54240;51.096;5.878;2023-05-27T00:24:37;11.73;-6.00
67358;HTU21D;54240;51.096;5.878;2023-05-27T00:27:06;11.69;-6.00
67358;HTU21D;54240;51.096;5.878;2023-05-27T00:29:32;11.78;-6.00
67358;HTU21D;54240;51.096;5.878;2023-05-27T00:32:02;11.86;-6.00
67358;HTU21D;54240;51.096;5.878;2023-05-27T00:34:32;11.90;-6.00
67358;HTU21D;54240;51.096;5.878;2023-05-27T00:37:00;11.66;-6.00
67358;HTU21D;54240;51.096;5.878;2023-05-27T00:39:26;11.73;-6.00
67358;HTU21D;54240;51.096;5.878;2023-05-27T00:41:52;11.75;-6.00
67358;HTU21D;54240;51.096;5.878;2023-05-27T00:44:18;11.58;-6.00
67358;HTU21D;54240;51.096;5.878;2023-05-27T00:46:44;11.64;-6.00
67358;HTU21D;54240;51.096;5.878;2023-05-27T00:49:13;11.54;-6.00
67358;HTU21D;54240;51.096;5.878;2023-05-27T00:51:39;11.56;-6.00
67358;HTU21D;54240;51.096;5.878;2023-05-27T00:54:07;11.46;-6.00
67358;HTU21D;54240;51.096;5.878;2023-05-27T00:56:34;11.51;-6.00
67358;HTU21D;54240;51.096;5.878;2023-05-27T00:59:00;11.54;-6.00
67358;HTU21D;54240;51.096;5.878;2023-05-27T01:01:27;11.45;-6.00
67358;HTU21D;54240;51.096;5.878;2023-05-27T01:03:56;11.41;-6.00
67358;HTU21D;54240;51.096;5.878;2023-05-27T01:06:35;11.37;-6.00
67358;HTU21D;54240;51.096;5.878;2023-05-27T01:11:42;11.25;-6.00
67358;HTU21D;54240;51.096;5.878;2023-05-27T01:14:13;11.18;-6.00
67358;HTU21D;54240;51.096;5.878;2023-05-27T01:16:43;11.10;-6.00
67358;HTU21D;54240;51.096;5.878;2023-05-27T01:19:17;11.17;-6.00
67358;HTU21D;54240;51.096;5.878;2023-05-27T01:21:48;11.22;-6.00
67358;HTU21D;54240;51.096;5.878;2023-05-27T01:24:18;11.25;-6.00
67358;HTU21D;54240;51.096;5.878;2023-05-27T01:26:44;11.23;-6.00
67358;HTU21D;54240;51.096;5.878;2023-05-27T01:29:10;11.19;-6.00
67358;HTU21D;54240;51.096;5.878;2023-05-27T01:31:51;11.13;-6.00
67358;HTU21D;54240;51.096;5.878;2023-05-27T01:34:26;11.11;-6.00
67358;HTU21D;54240;51.096;5.878;2023-05-27T01:36:59;11.08;-6.00
67358;HTU21D;54240;51.096;5.878;2023-05-27T01:39:28;11.00;-6.00
67358;HTU21D;54240;51.096;5.878;2023-05-27T01:41:55;11.01;-6.00
67358;HTU21D;54240;51.096;5.878;2023-05-27T01:44:23;10.86;-6.00
67358;HTU21D;54240;51.096;5.878;2023-05-27T01:46:49;10.87;-6.00
67358;HTU21D;54240;51.096;5.878;2023-05-27T01:49:16;10.95;-6.00
67358;HTU21D;54240;51.096;5.878;2023-05-27T01:51:42;10.89;-6.00
67358;HTU21D;54240;51.096;5.878;2023-05-27T01:54:08;10.87;-6.00
67358;HTU21D;54240;51.096;5.878;2023-05-27T01:56:34;10.80;-6.00
67358;HTU21D;54240;51.096;5.878;2023-05-27T01:59:01;10.82;-6.00
67358;HTU21D;54240;51.096;5.878;2023-05-27T02:01:27;10.77;-6.00
67358;HTU21D;54240;51.096;5.878;2023-05-27T02:03:54;10.77;-6.00
67358;HTU21D;54240;51.096;5.878;2023-05-27T02:06:20;10.74;-6.00
67358;HTU21D;54240;51.096;5.878;2023-05-27T02:08:45;10.70;-6.00
67358;HTU21D;54240;51.096;5.878;2023-05-27T02:11:12;10.65;-6.00
67358;HTU21D;54240;51.096;5.878;2023-05-27T02:13:38;10.64;-6.00
67358;HTU21D;54240;51.096;5.878;2023-05-27T02:16:04;10.54;-6.00
67358;HTU21D;54240;51.096;5.878;2023-05-27T02:18:31;10.53;-6.00
67358;HTU21D;54240;51.096;5.878;2023-05-27T02:20:59;10.49;-6.00
67358;HTU21D;54240;51.096;5.878;2023-05-27T02:23:34;10.44;-6.00
67358;HTU21D;54240;51.096;5.878;2023-05-27T02:26:02;10.43;-6.00
67358;HTU21D;54240;51.096;5.878;2023-05-27T02:28:28;10.42;-6.00
67358;HTU21D;54240;51.096;5.878;2023-05-27T02:30:54;10.39;-6.00
67358;HTU21D;54240;51.096;5.878;2023-05-27T02:33:20;10.40;-6.00
67358;HTU21D;54240;51.096;5.878;2023-05-27T02:35:46;10.30;-6.00
67358;HTU21D;54240;51.096;5.878;2023-05-27T02:38:12;10.29;-6.00
67358;HTU21D;54240;51.096;5.878;2023-05-27T02:40:38;10.07;-6.00
67358;HTU21D;54240;51.096;5.878;2023-05-27T02:43:05;10.21;-6.00
67358;HTU21D;54240;51.096;5.878;2023-05-27T02:45:33;10.14;-6.00
67358;HTU21D;54240;51.096;5.878;2023-05-27T02:47:58;10.18;-6.00
67358;HTU21D;54240;51.096;5.878;2023-05-27T02:50:27;10.13;-6.00
67358;HTU21D;54240;51.096;5.878;2023-05-27T02:52:53;10.07;-6.00
67358;HTU21D;54240;51.096;5.878;2023-05-27T02:55:20;9.92;-6.00
67358;HTU21D;54240;51.096;5.878;2023-05-27T02:57:46;9.97;-6.00
67358;HTU21D;54240;51.096;5.878;2023-05-27T03:00:13;9.81;-6.00
67358;HTU21D;54240;51.096;5.878;2023-05-27T03:02:40;9.86;-6.00
67358;HTU21D;54240;51.096;5.878;2023-05-27T03:05:06;9.83;-6.00
67358;HTU21D;54240;51.096;5.878;2023-05-27T03:07:33;9.59;-6.00
67358;HTU21D;54240;51.096;5.878;2023-05-27T03:10:00;9.53;-6.00
67358;HTU21D;54240;51.096;5.878;2023-05-27T03:12:26;9.50;-6.00
67358;HTU21D;54240;51.096;5.878;2023-05-27T03:14:52;9.56;-6.00
67358;HTU21D;54240;51.096;5.878;2023-05-27T03:17:19;9.56;-6.00
67358;HTU21D;54240;51.096;5.878;2023-05-27T03:19:46;9.50;-6.00
67358;HTU21D;54240;51.096;5.878;2023-05-27T03:22:13;9.45;-6.00
67358;HTU21D;54240;51.096;5.878;2023-05-27T03:24:40;9.47;-6.00
67358;HTU21D;54240;51.096;5.878;2023-05-27T03:27:07;9.41;-6.00
67358;HTU21D;54240;51.096;5.878;2023-05-27T03:29:36;9.44;-6.00
67358;HTU21D;54240;51.096;5.878;2023-05-27T03:32:02;9.38;-6.00
67358;HTU21D;54240;51.096;5.878;2023-05-27T03:34:30;9.29;-6.00
67358;HTU21D;54240;51.096;5.878;2023-05-27T03:36:55;9.30;-6.00
67358;HTU21D;54240;51.096;5.878;2023-05-27T03:39:31;9.31;-6.00
67358;HTU21D;54240;51.096;5.878;2023-05-27T03:42:00;9.23;-6.00
67358;HTU21D;54240;51.096;5.878;2023-05-27T03:44:27;9.49;-6.00
67358;HTU21D;54240;51.096;5.878;2023-05-27T03:46:54;9.55;-6.00
67358;HTU21D;54240;51.096;5.878;2023-05-27T03:49:20;9.42;-6.00
67358;HTU21D;54240;51.096;5.878;2023-05-27T03:51:47;9.57;-6.00
67358;HTU21D;54240;51.096;5.878;2023-05-27T03:54:13;9.52;-6.00
67358;HTU21D;54240;51.096;5.878;2023-05-27T03:56:40;9.59;-6.00
67358;HTU21D;54240;51.096;5.878;2023-05-27T03:59:06;9.48;-6.00
67358;HTU21D;54240;51.096;5.878;2023-05-27T04:01:35;9.33;-6.00
67358;HTU21D;54240;51.096;5.878;2023-05-27T04:04:01;9.25;-6.00
67358;HTU21D;54240;51.096;5.878;2023-05-27T04:06:29;9.26;-6.00
67358;HTU21D;54240;51.096;5.878;2023-05-27T04:08:57;9.18;-6.00
67358;HTU21D;54240;51.096;5.878;2023-05-27T04:11:26;9.21;-6.00
67358;HTU21D;54240;51.096;5.878;2023-05-27T04:13:52;9.32;-6.00
67358;HTU21D;54240;51.096;5.878;2023-05-27T04:16:18;9.34;-6.00
67358;HTU21D;54240;51.096;5.878;2023-05-27T04:18:44;9.37;-6.00
67358;HTU21D;54240;51.096;5.878;2023-05-27T04:21:15;9.38;-6.00
67358;HTU21D;54240;51.096;5.878;2023-05-27T04:23:42;9.49;-6.00
67358;HTU21D;54240;51.096;5.878;2023-05-27T04:26:08;9.62;-6.00
67358;HTU21D;54240;51.096;5.878;2023-05-27T04:28:38;9.42;-6.00
67358;HTU21D;54240;51.096;5.878;2023-05-27T04:31:05;9.40;-6.00
67358;HTU21D;54240;51.096;5.878;2023-05-27T04:33:42;9.45;-6.00
67358;HTU21D;54240;51.096;5.878;2023-05-27T04:36:08;9.41;-6.00
67358;HTU21D;54240;51.096;5.878;2023-05-27T04:38:50;9.50;-6.00
67358;HTU21D;54240;51.096;5.878;2023-05-27T04:41:16;9.59;-6.00
67358;HTU21D;54240;51.096;5.878;2023-05-27T04:43:45;9.57;-6.00
67358;HTU21D;54240;51.096;5.878;2023-05-27T04:46:15;9.60;-6.00
67358;HTU21D;54240;51.096;5.878;2023-05-27T04:48:42;9.65;-6.00
67358;HTU21D;54240;51.096;5.878;2023-05-27T04:51:10;9.75;-6.00
67358;HTU21D;54240;51.096;5.878;2023-05-27T04:53:36;9.81;-6.00
67358;HTU21D;54240;51.096;5.878;2023-05-27T04:56:02;9.86;-6.00
67358;HTU21D;54240;51.096;5.878;2023-05-27T04:58:30;9.79;-6.00
67358;HTU21D;54240;51.096;5.878;2023-05-27T05:00:56;9.97;-6.00
67358;HTU21D;54240;51.096;5.878;2023-05-27T05:03:24;10.04;-6.00
67358;HTU21D;54240;51.096;5.878;2023-05-27T05:06:04;10.01;-6.00
67358;HTU21D;54240;51.096;5.878;2023-05-27T05:08:31;10.05;-6.00
67358;HTU21D;54240;51.096;5.878;2023-05-27T05:10:57;9.96;-6.00
67358;HTU21D;54240;51.096;5.878;2023-05-27T05:13:25;10.06;-6.00
67358;HTU21D;54240;51.096;5.878;2023-05-27T05:15:55;10.10;-6.00
67358;HTU21D;54240;51.096;5.878;2023-05-27T05:18:21;10.20;-6.00
67358;HTU21D;54240;51.096;5.878;2023-05-27T05:20:48;10.29;-6.00
67358;HTU21D;54240;51.096;5.878;2023-05-27T05:23:19;10.33;-6.00
67358;HTU21D;54240;51.096;5.878;2023-05-27T05:25:47;10.28;-6.00
67358;HTU21D;54240;51.096;5.878;2023-05-27T05:28:20;10.38;-6.00
67358;HTU21D;54240;51.096;5.878;2023-05-27T05:30:46;10.46;-6.00
67358;HTU21D;54240;51.096;5.878;2023-05-27T05:33:15;10.56;-6.00
67358;HTU21D;54240;51.096;5.878;2023-05-27T05:35:42;10.69;-6.00
67358;HTU21D;54240;51.096;5.878;2023-05-27T05:38:19;10.80;-6.00
67358;HTU21D;54240;51.096;5.878;2023-05-27T05:40:49;10.93;-6.00
67358;HTU21D;54240;51.096;5.878;2023-05-27T05:43:18;11.01;-6.00
67358;HTU21D;54240;51.096;5.878;2023-05-27T05:45:46;11.15;-6.00
67358;HTU21D;54240;51.096;5.878;2023-05-27T05:48:13;11.28;-6.00
67358;HTU21D;54240;51.096;5.878;2023-05-27T05:50:41;11.42;-6.00
67358;HTU21D;54240;51.096;5.878;2023-05-27T05:53:08;11.54;-6.00
67358;HTU21D;54240;51.096;5.878;2023-05-27T05:55:35;11.66;-6.00
67358;HTU21D;54240;51.096;5.878;2023-05-27T05:58:01;11.69;-6.00
67358;HTU21D;54240;51.096;5.878;2023-05-27T06:00:28;11.71;-6.00
67358;HTU21D;54240;51.096;5.878;2023-05-27T06:03:04;11.77;-6.00
67358;HTU21D;54240;51.096;5.878;2023-05-27T06:05:51;11.87;-6.00
67358;HTU21D;54240;51.096;5.878;2023-05-27T06:08:17;11.83;-6.00
67358;HTU21D;54240;51.096;5.878;2023-05-27T06:10:51;12.01;-6.00
67358;HTU21D;54240;51.096;5.878;2023-05-27T06:13:17;12.15;-6.00
67358;HTU21D;54240;51.096;5.878;2023-05-27T06:15:46;12.25;-6.00
67358;HTU21D;54240;51.096;5.878;2023-05-27T06:18:13;12.31;-6.00
67358;HTU21D;54240;51.096;5.878;2023-05-27T06:20:38;12.40;-6.00
67358;HTU21D;54240;51.096;5.878;2023-05-27T06:23:05;12.52;-6.00
67358;HTU21D;54240;51.096;5.878;2023-05-27T06:25:52;12.66;-6.00
67358;HTU21D;54240;51.096;5.878;2023-05-27T06:28:19;12.73;-6.00
67358;HTU21D;54240;51.096;5.878;2023-05-27T06:30:45;12.81;-6.00
67358;HTU21D;54240;51.096;5.878;2023-05-27T06:33:13;12.93;-6.00
67358;HTU21D;54240;51.096;5.878;2023-05-27T06:35:38;13.03;-6.00
67358;HTU21D;54240;51.096;5.878;2023-05-27T06:38:05;13.09;-6.00
67358;HTU21D;54240;51.096;5.878;2023-05-27T06:40:31;13.24;-6.00
67358;HTU21D;54240;51.096;5.878;2023-05-27T06:42:58;13.39;-6.00
67358;HTU21D;54240;51.096;5.878;2023-05-27T06:45:43;13.49;-6.00
67358;HTU21D;54240;51.096;5.878;2023-05-27T06:48:23;13.63;-6.00
67358;HTU21D;54240;51.096;5.878;2023-05-27T06:50:48;13.56;-6.00
67358;HTU21D;54240;51.096;5.878;2023-05-27T06:53:14;13.63;-6.00
67358;HTU21D;54240;51.096;5.878;2023-05-27T06:56:02;13.67;-6.00
67358;HTU21D;54240;51.096;5.878;2023-05-27T06:58:31;13.88;-6.00
67358;HTU21D;54240;51.096;5.878;2023-05-27T07:01:00;13.84;-6.00
67358;HTU21D;54240;51.096;5.878;2023-05-27T07:03:33;14.01;-6.00
67358;HTU21D;54240;51.096;5.878;2023-05-27T07:05:59;14.20;-6.00
67358;HTU21D;54240;51.096;5.878;2023-05-27T07:08:29;14.44;-6.00
67358;HTU21D;54240;51.096;5.878;2023-05-27T07:11:06;14.73;-6.00
67358;HTU21D;54240;51.096;5.878;2023-05-27T07:13:32;14.97;-6.00
67358;HTU21D;54240;51.096;5.878;2023-05-27T07:15:58;15.17;-6.00
67358;HTU21D;54240;51.096;5.878;2023-05-27T07:18:24;15.29;-6.00
67358;HTU21D;54240;51.096;5.878;2023-05-27T07:20:54;15.46;-6.00
67358;HTU21D;54240;51.096;5.878;2023-05-27T07:23:20;15.66;-6.00
67358;HTU21D;54240;51.096;5.878;2023-05-27T07:25:54;15.91;-6.00
67358;HTU21D;54240;51.096;5.878;2023-05-27T07:28:22;16.05;-6.00
67358;HTU21D;54240;51.096;5.878;2023-05-27T07:30:54;16.21;-6.00
67358;HTU21D;54240;51.096;5.878;2023-05-27T07:33:20;16.28;-6.00
67358;HTU21D;54240;51.096;5.878;2023-05-27T07:35:46;16.39;-6.00
67358;HTU21D;54240;51.096;5.878;2023-05-27T07:38:12;16.49;-6.00
67358;HTU21D;54240;51.096;5.878;2023-05-27T07:40:38;16.55;-6.00
67358;HTU21D;54240;51.096;5.878;2023-05-27T07:43:05;16.60;-6.00
67358;HTU21D;54240;51.096;5.878;2023-05-27T07:45:33;16.74;-6.00
67358;HTU21D;54240;51.096;5.878;2023-05-27T07:47:59;16.94;-6.00
67358;HTU21D;54240;51.096;5.878;2023-05-27T07:50:25;16.74;-6.00
67358;HTU21D;54240;51.096;5.878;2023-05-27T07:53:11;16.96;-6.00
67358;HTU21D;54240;51.096;5.878;2023-05-27T07:55:38;17.18;-6.00
67358;HTU21D;54240;51.096;5.878;2023-05-27T07:58:05;17.21;-6.00
67358;HTU21D;54240;51.096;5.878;2023-05-27T08:00:44;17.38;-6.00
67358;HTU21D;54240;51.096;5.878;2023-05-27T08:03:10;17.41;-6.00
67358;HTU21D;54240;51.096;5.878;2023-05-27T08:05:57;18.02;-6.00
67358;HTU21D;54240;51.096;5.878;2023-05-27T08:08:31;18.63;-6.00
67358;HTU21D;54240;51.096;5.878;2023-05-27T08:11:27;19.28;-6.00
67358;HTU21D;54240;51.096;5.878;2023-05-27T08:14:01;19.72;-6.00
67358;HTU21D;54240;51.096;5.878;2023-05-27T08:16:33;19.92;-6.00
67358;HTU21D;54240;51.096;5.878;2023-05-27T08:19:07;19.85;-6.00
67358;HTU21D;54240;51.096;5.878;2023-05-27T08:21:59;20.21;-6.00
67358;HTU21D;54240;51.096;5.878;2023-05-27T08:24:52;20.51;-6.00
67358;HTU21D;54240;51.096;5.878;2023-05-27T08:27:49;21.25;-6.00
67358;HTU21D;54240;51.096;5.878;2023-05-27T08:30:22;21.92;-6.00
67358;HTU21D;54240;51.096;5.878;2023-05-27T08:33:08;21.82;-6.00
67358;HTU21D;54240;51.096;5.878;2023-05-27T08:35:35;21.66;-6.00
67358;HTU21D;54240;51.096;5.878;2023-05-27T08:38:02;21.87;-6.00
67358;HTU21D;54240;51.096;5.878;2023-05-27T08:40:32;21.84;-6.00
67358;HTU21D;54240;51.096;5.878;2023-05-27T08:42:59;21.83;-6.00
67358;HTU21D;54240;51.096;5.878;2023-05-27T08:45:25;21.79;-6.00
67358;HTU21D;54240;51.096;5.878;2023-05-27T08:47:53;22.10;-6.00
67358;HTU21D;54240;51.096;5.878;2023-05-27T08:50:24;22.14;-6.00
67358;HTU21D;54240;51.096;5.878;2023-05-27T08:52:53;22.40;-6.00
67358;HTU21D;54240;51.096;5.878;2023-05-27T08:55:21;22.71;-6.00
67358;HTU21D;54240;51.096;5.878;2023-05-27T08:57:54;23.14;-6.00
67358;HTU21D;54240;51.096;5.878;2023-05-27T09:00:21;23.41;-6.00
67358;HTU21D;54240;51.096;5.878;2023-05-27T09:02:49;23.35;-6.00
67358;HTU21D;54240;51.096;5.878;2023-05-27T09:05:17;23.77;-6.00
67358;HTU21D;54240;51.096;5.878;2023-05-27T09:07:44;24.15;-6.00
67358;HTU21D;54240;51.096;5.878;2023-05-27T09:10:10;24.14;-6.00
67358;HTU21D;54240;51.096;5.878;2023-05-27T09:12:36;24.62;-6.00
67358;HTU21D;54240;51.096;5.878;2023-05-27T09:15:03;25.01;-6.00
67358;HTU21D;54240;51.096;5.878;2023-05-27T09:17:30;24.75;-6.00
67358;HTU21D;54240;51.096;5.878;2023-05-27T09:19:57;24.18;-6.00
67358;HTU21D;54240;51.096;5.878;2023-05-27T09:22:26;24.02;-6.00
67358;HTU21D;54240;51.096;5.878;2023-05-27T09:24:52;24.56;-6.00
67358;HTU21D;54240;51.096;5.878;2023-05-27T09:27:27;24.73;-6.00
67358;HTU21D;54240;51.096;5.878;2023-05-27T09:29:54;25.17;-6.00
67358;HTU21D;54240;51.096;5.878;2023-05-27T09:32:30;25.52;-6.00
67358;HTU21D;54240;51.096;5.878;2023-05-27T09:35:00;24.87;-6.00
67358;HTU21D;54240;51.096;5.878;2023-05-27T09:37:29;24.60;-6.00
67358;HTU21D;54240;51.096;5.878;2023-05-27T09:40:05;25.06;-6.00
67358;HTU21D;54240;51.096;5.878;2023-05-27T09:45:14;26.48;-6.00
67358;HTU21D;54240;51.096;5.878;2023-05-27T09:47:47;26.64;-6.00
67358;HTU21D;54240;51.096;5.878;2023-05-27T09:50:15;26.37;-6.00
67358;HTU21D;54240;51.096;5.878;2023-05-27T09:52:44;26.50;-6.00
67358;HTU21D;54240;51.096;5.878;2023-05-27T09:55:12;26.03;-6.00
67358;HTU21D;54240;51.096;5.878;2023-05-27T09:57:41;25.93;-6.00
67358;HTU21D;54240;51.096;5.878;2023-05-27T10:00:10;26.25;-6.00
67358;HTU21D;54240;51.096;5.878;2023-05-27T10:02:48;26.68;-6.00
67358;HTU21D;54240;51.096;5.878;2023-05-27T10:05:16;26.96;-6.00
67358;HTU21D;54240;51.096;5.878;2023-05-27T10:07:44;26.38;-6.00
67358;HTU21D;54240;51.096;5.878;2023-05-27T10:10:14;26.57;-6.00
67358;HTU21D;54240;51.096;5.878;2023-05-27T10:12:47;27.24;-6.00
67358;HTU21D;54240;51.096;5.878;2023-05-27T10:15:24;27.91;-6.00
67358;HTU21D;54240;51.096;5.878;2023-05-27T10:18:04;28.20;-6.00
67358;HTU21D;54240;51.096;5.878;2023-05-27T10:20:41;28.19;-6.00
67358;HTU21D;54240;51.096;5.878;2023-05-27T10:23:24;28.31;-6.00
67358;HTU21D;54240;51.096;5.878;2023-05-27T10:26:09;28.46;-6.00
67358;HTU21D;54240;51.096;5.878;2023-05-27T10:28:37;27.20;-6.00
67358;HTU21D;54240;51.096;5.878;2023-05-27T10:31:17;26.63;-6.00
67358;HTU21D;54240;51.096;5.878;2023-05-27T10:33:47;26.18;-6.00
67358;HTU21D;54240;51.096;5.878;2023-05-27T10:36:16;26.10;-6.00
67358;HTU21D;54240;51.096;5.878;2023-05-27T10:38:55;26.36;-6.00
67358;HTU21D;54240;51.096;5.878;2023-05-27T10:41:22;26.72;-6.00
67358;HTU21D;54240;51.096;5.878;2023-05-27T10:43:55;27.16;-6.00
67358;HTU21D;54240;51.096;5.878;2023-05-27T10:46:23;27.70;-6.00
67358;HTU21D;54240;51.096;5.878;2023-05-27T10:48:49;28.24;-6.00
67358;HTU21D;54240;51.096;5.878;2023-05-27T10:51:15;28.30;-6.00
67358;HTU21D;54240;51.096;5.878;2023-05-27T10:53:41;28.13;-6.00
67358;HTU21D;54240;51.096;5.878;2023-05-27T10:56:08;28.42;-6.00
67358;HTU21D;54240;51.096;5.878;2023-05-27T10:58:36;28.75;-6.00
67358;HTU21D;54240;51.096;5.878;2023-05-27T11:01:14;28.45;-6.00
67358;HTU21D;54240;51.096;5.878;2023-05-27T11:03:44;28.09;-6.00
67358;HTU21D;54240;51.096;5.878;2023-05-27T11:06:11;28.05;-6.00
67358;HTU21D;54240;51.096;5.878;2023-05-27T11:08:38;28.54;-6.00
67358;HTU21D;54240;51.096;5.878;2023-05-27T11:11:09;28.88;-6.00
67358;HTU21D;54240;51.096;5.878;2023-05-27T11:13:41;29.31;-6.00
67358;HTU21D;54240;51.096;5.878;2023-05-27T11:16:12;30.06;-6.00
67358;HTU21D;54240;51.096;5.878;2023-05-27T11:18:47;30.19;-6.00
67358;HTU21D;54240;51.096;5.878;2023-05-27T11:21:15;30.60;-6.00
67358;HTU21D;54240;51.096;5.878;2023-05-27T11:23:47;29.73;-6.00
67358;HTU21D;54240;51.096;5.878;2023-05-27T11:26:18;29.46;-6.00
67358;HTU21D;54240;51.096;5.878;2023-05-27T11:28:57;29.98;-6.00
67358;HTU21D;54240;51.096;5.878;2023-05-27T11:31:30;30.30;-6.00
67358;HTU21D;54240;51.096;5.878;2023-05-27T11:33:57;30.24;-6.00
67358;HTU21D;54240;51.096;5.878;2023-05-27T11:36:27;29.95;-6.00
67358;HTU21D;54240;51.096;5.878;2023-05-27T11:38:59;29.26;-6.00
67358;HTU21D;54240;51.096;5.878;2023-05-27T11:41:27;28.69;-6.00
67358;HTU21D;54240;51.096;5.878;2023-05-27T11:43:59;28.44;-6.00
67358;HTU21D;54240;51.096;5.878;2023-05-27T11:46:43;28.38;-6.00
67358;HTU21D;54240;51.096;5.878;2023-05-27T11:49:10;28.00;-6.00
67358;HTU21D;54240;51.096;5.878;2023-05-27T11:51:39;27.22;-6.00
67358;HTU21D;54240;51.096;5.878;2023-05-27T11:54:06;27.34;-6.00
67358;HTU21D;54240;51.096;5.878;2023-05-27T11:56:33;27.49;-6.00
67358;HTU21D;54240;51.096;5.878;2023-05-27T11:58:59;27.53;-6.00
67358;HTU21D;54240;51.096;5.878;2023-05-27T12:01:25;27.51;-6.00
67358;HTU21D;54240;51.096;5.878;2023-05-27T12:03:52;26.99;-6.00
67358;HTU21D;54240;51.096;5.878;2023-05-27T12:06:17;26.79;-6.00
67358;HTU21D;54240;51.096;5.878;2023-05-27T12:08:44;26.47;-6.00
67358;HTU21D;54240;51.096;5.878;2023-05-27T12:11:10;25.99;-6.00
67358;HTU21D;54240;51.096;5.878;2023-05-27T12:13:36;26.13;-6.00
67358;HTU21D;54240;51.096;5.878;2023-05-27T12:16:02;26.53;-6.00
67358;HTU21D;54240;51.096;5.878;2023-05-27T12:18:32;26.43;-6.00
67358;HTU21D;54240;51.096;5.878;2023-05-27T12:20:57;26.56;-6.00
67358;HTU21D;54240;51.096;5.878;2023-05-27T12:23:23;26.67;-6.00
67358;HTU21D;54240;51.096;5.878;2023-05-27T12:25:49;26.95;-6.00
67358;HTU21D;54240;51.096;5.878;2023-05-27T12:28:15;26.70;-6.00
67358;HTU21D;54240;51.096;5.878;2023-05-27T12:30:41;26.24;-6.00
67358;HTU21D;54240;51.096;5.878;2023-05-27T12:33:07;26.40;-6.00
67358;HTU21D;54240;51.096;5.878;2023-05-27T12:35:33;26.66;-6.00
67358;HTU21D;54240;51.096;5.878;2023-05-27T12:37:59;26.63;-6.00
67358;HTU21D;54240;51.096;5.878;2023-05-27T12:40:26;26.61;-6.00
67358;HTU21D;54240;51.096;5.878;2023-05-27T12:42:53;26.86;-6.00
67358;HTU21D;54240;51.096;5.878;2023-05-27T12:45:19;26.95;-6.00
67358;HTU21D;54240;51.096;5.878;2023-05-27T12:47:50;26.75;-6.00
67358;HTU21D;54240;51.096;5.878;2023-05-27T12:50:16;26.77;-6.00
67358;HTU21D;54240;51.096;5.878;2023-05-27T12:52:43;26.67;-6.00
67358;HTU21D;54240;51.096;5.878;2023-05-27T12:55:21;26.98;-6.00
67358;HTU21D;54240;51.096;5.878;2023-05-27T12:57:50;27.54;-6.00
67358;HTU21D;54240;51.096;5.878;2023-05-27T13:00:17;27.64;-6.00
67358;HTU21D;54240;51.096;5.878;2023-05-27T13:02:44;27.58;-6.00
67358;HTU21D;54240;51.096;5.878;2023-05-27T13:05:11;27.85;-6.00
67358;HTU21D;54240;51.096;5.878;2023-05-27T13:07:37;27.88;-6.00
67358;HTU21D;54240;51.096;5.878;2023-05-27T13:10:11;27.89;-6.00
67358;HTU21D;54240;51.096;5.878;2023-05-27T13:12:44;28.02;-6.00
67358;HTU21D;54240;51.096;5.878;2023-05-27T13:15:10;28.11;-6.00
67358;HTU21D;54240;51.096;5.878;2023-05-27T13:17:36;28.18;-6.00
67358;HTU21D;54240;51.096;5.878;2023-05-27T13:20:02;28.19;-6.00
67358;HTU21D;54240;51.096;5.878;2023-05-27T13:22:28;28.03;-6.00
67358;HTU21D;54240;51.096;5.878;2023-05-27T13:24:54;27.83;-6.00
67358;HTU21D;54240;51.096;5.878;2023-05-27T13:27:21;27.52;-6.00
67358;HTU21D;54240;51.096;5.878;2023-05-27T13:29:48;26.98;-6.00
67358;HTU21D;54240;51.096;5.878;2023-05-27T13:32:14;26.58;-6.00
67358;HTU21D;54240;51.096;5.878;2023-05-27T13:34:40;26.49;-6.00
67358;HTU21D;54240;51.096;5.878;2023-05-27T13:37:06;26.38;-6.00
67358;HTU21D;54240;51.096;5.878;2023-05-27T13:39:32;26.37;-6.00
67358;HTU21D;54240;51.096;5.878;2023-05-27T13:41:59;26.61;-6.00
67358;HTU21D;54240;51.096;5.878;2023-05-27T13:44:28;26.27;-6.00
67358;HTU21D;54240;51.096;5.878;2023-05-27T13:46:54;25.94;-6.00
67358;HTU21D;54240;51.096;5.878;2023-05-27T13:49:19;26.08;-6.00
67358;HTU21D;54240;51.096;5.878;2023-05-27T13:51:46;26.23;-6.00
67358;HTU21D;54240;51.096;5.878;2023-05-27T13:54:12;25.92;-6.00
67358;HTU21D;54240;51.096;5.878;2023-05-27T13:56:38;25.66;-6.00
67358;HTU21D;54240;51.096;5.878;2023-05-27T13:59:04;25.86;-6.00
67358;HTU21D;54240;51.096;5.878;2023-05-27T14:01:31;25.96;-6.00
67358;HTU21D;54240;51.096;5.878;2023-05-27T14:03:58;26.17;-6.00
67358;HTU21D;54240;51.096;5.878;2023-05-27T14:06:25;26.32;-6.00
67358;HTU21D;54240;51.096;5.878;2023-05-27T14:08:51;26.46;-6.00
67358;HTU21D;54240;51.096;5.878;2023-05-27T14:11:18;26.42;-6.00
67358;HTU21D;54240;51.096;5.878;2023-05-27T14:13:44;26.33;-6.00
67358;HTU21D;54240;51.096;5.878;2023-05-27T14:16:09;26.25;-6.00
67358;HTU21D;54240;51.096;5.878;2023-05-27T14:18:35;26.43;-6.00
67358;HTU21D;54240;51.096;5.878;2023-05-27T14:21:01;26.18;-6.00
67358;HTU21D;54240;51.096;5.878;2023-05-27T14:23:27;25.75;-6.00
67358;HTU21D;54240;51.096;5.878;2023-05-27T14:25:53;25.39;-6.00
67358;HTU21D;54240;51.096;5.878;2023-05-27T14:28:19;25.61;-6.00
67358;HTU21D;54240;51.096;5.878;2023-05-27T14:30:45;25.74;-6.00
67358;HTU21D;54240;51.096;5.878;2023-05-27T14:33:11;25.51;-6.00
67358;HTU21D;54240;51.096;5.878;2023-05-27T14:35:39;25.28;-6.00
67358;HTU21D;54240;51.096;5.878;2023-05-27T14:38:06;25.39;-6.00
67358;HTU21D;54240;51.096;5.878;2023-05-27T14:40:33;25.48;-6.00
67358;HTU21D;54240;51.096;5.878;2023-05-27T14:42:59;25.47;-6.00
67358;HTU21D;54240;51.096;5.878;2023-05-27T14:45:25;25.80;-6.00
67358;HTU21D;54240;51.096;5.878;2023-05-27T14:47:52;26.15;-6.00
67358;HTU21D;54240;51.096;5.878;2023-05-27T14:50:21;26.69;-6.00
67358;HTU21D;54240;51.096;5.878;2023-05-27T14:52:52;27.27;-6.00
67358;HTU21D;54240;51.096;5.878;2023-05-27T14:55:18;27.68;-6.00
67358;HTU21D;54240;51.096;5.878;2023-05-27T14:57:45;28.09;-6.00
67358;HTU21D;54240;51.096;5.878;2023-05-27T15:00:11;28.31;-6.00
67358;HTU21D;54240;51.096;5.878;2023-05-27T15:02:37;28.32;-6.00
67358;HTU21D;54240;51.096;5.878;2023-05-27T15:05:05;28.21;-6.00
67358;HTU21D;54240;51.096;5.878;2023-05-27T15:07:32;28.18;-6.00
67358;HTU21D;54240;51.096;5.878;2023-05-27T15:09:59;28.33;-6.00
67358;HTU21D;54240;51.096;5.878;2023-05-27T15:12:38;27.80;-6.00
67358;HTU21D;54240;51.096;5.878;2023-05-27T15:15:10;27.72;-6.00
67358;HTU21D;54240;51.096;5.878;2023-05-27T15:17:37;27.83;-6.00
67358;HTU21D;54240;51.096;5.878;2023-05-27T15:20:04;28.09;-6.00
67358;HTU21D;54240;51.096;5.878;2023-05-27T15:22:31;28.08;-6.00
67358;HTU21D;54240;51.096;5.878;2023-05-27T15:24:57;28.06;-6.00
67358;HTU21D;54240;51.096;5.878;2023-05-27T15:27:23;27.90;-6.00
67358;HTU21D;54240;51.096;5.878;2023-05-27T15:29:50;27.32;-6.00
67358;HTU21D;54240;51.096;5.878;2023-05-27T15:32:16;26.82;-6.00